createdAt,value
2022-11-08T00:00:03.480Z,14.67
2022-11-08T00:05:44.811Z,12.57
2022-11-08T00:11:06.289Z,9.90
2022-11-08T00:16:09.053Z,12.37
2022-11-08T00:21:11.797Z,10.47
2022-11-08T00:26:14.571Z,11.40
2022-11-08T05:35:13.711Z,37.83
2022-11-08T05:40:17.286Z,43.13
2022-11-08T05:45:20.812Z,37.30
2022-11-08T05:50:25.128Z,39.00
2022-11-08T05:55:28.544Z,29.97
2022-11-08T06:00:31.967Z,26.90
2022-11-08T06:05:37.887Z,23.57
2022-11-08T06:10:41.144Z,26.37
2022-11-08T06:15:44.555Z,33.40
2022-11-08T06:20:47.818Z,41.97
2022-11-08T06:25:51.196Z,38.70
2022-11-08T06:30:54.697Z,48.70
2022-11-08T06:35:58.144Z,50.90
2022-11-08T06:41:02.369Z,42.23
2022-11-08T06:46:05.926Z,50.67
2022-11-08T06:51:09.243Z,47.70
2022-11-08T06:56:12.823Z,48.53
2022-11-08T07:01:16.131Z,56.77
2022-11-08T07:06:19.798Z,49.70
2022-11-08T07:11:23.131Z,46.70
2022-11-08T07:16:26.433Z,44.03
2022-11-08T07:21:29.673Z,48.57
2022-11-08T07:26:33.043Z,42.80
2022-11-08T07:31:36.210Z,34.03
2022-11-08T07:36:39.519Z,33.73
2022-11-08T07:41:42.770Z,26.17
2022-11-08T07:46:45.993Z,22.73
2022-11-08T07:51:49.305Z,22.17
2022-11-08T07:56:52.636Z,23.70
2022-11-08T08:01:55.997Z,25.77
2022-11-08T08:06:59.438Z,23.80
2022-11-08T08:12:03.465Z,20.67
2022-11-08T08:17:06.656Z,20.40
2022-11-08T08:22:09.920Z,17.73
2022-11-08T08:27:13.229Z,12.60
2022-11-08T08:32:16.389Z,16.07
2022-11-08T08:37:19.525Z,16.70
2022-11-08T08:42:22.830Z,16.97
2022-11-08T08:47:25.922Z,15.93
2022-11-08T08:52:28.764Z,17.83
2022-11-08T08:57:32.086Z,12.20
2022-11-08T09:02:37.387Z,20.23
2022-11-08T09:07:43.302Z,10.50
2022-11-08T09:12:46.453Z,12.73
2022-11-08T09:17:49.767Z,19.03
2022-11-08T09:22:53.068Z,16.53
2022-11-08T09:27:56.387Z,14.53
2022-11-08T09:33:01.309Z,17.60
2022-11-08T09:38:05.255Z,22.70
2022-11-08T09:43:31.213Z,13.83
2022-11-08T09:48:43.332Z,17.17
2022-11-08T09:54:00.959Z,16.37
2022-11-08T09:59:32.242Z,13.67
2022-11-08T10:04:37.362Z,15.10
2022-11-08T10:10:16.495Z,15.87
2022-11-08T10:15:52.155Z,13.97
2022-11-08T10:21:10.231Z,8.00
2022-11-08T10:26:22.954Z,13.53
2022-11-08T10:31:35.301Z,18.60
2022-11-08T10:36:54.789Z,11.10
2022-11-08T10:42:02.681Z,15.10
2022-11-08T10:47:34.743Z,15.93
2022-11-08T10:52:58.714Z,11.93
2022-11-08T10:58:01.914Z,12.50
2022-11-08T11:03:10.836Z,12.77
2022-11-08T11:08:15.146Z,11.20
2022-11-08T11:13:28.765Z,10.90
2022-11-08T11:18:34.412Z,10.63
2022-11-08T11:23:46.299Z,4.80
2022-11-08T11:29:07.768Z,3.53
2022-11-08T11:34:20.208Z,6.47
2022-11-08T11:39:38.073Z,6.53
2022-11-08T11:45:13.407Z,5.50
2022-11-08T11:50:40.512Z,5.87
2022-11-08T11:55:55.762Z,6.07
2022-11-08T12:01:14.236Z,3.83
2022-11-08T12:06:43.822Z,3.23
2022-11-08T12:12:03.923Z,3.50
2022-11-08T12:17:25.334Z,4.57
2022-11-08T12:22:35.236Z,5.03
2022-11-08T12:28:05.708Z,4.23
2022-11-08T12:33:14.843Z,3.57
2022-11-08T12:38:44.354Z,4.13
2022-11-08T12:44:06.121Z,2.67
2022-11-08T12:49:30.607Z,4.37
2022-11-08T12:54:38.538Z,3.90
2022-11-08T13:00:00.605Z,2.77
2022-11-08T13:05:21.468Z,5.17
2022-11-08T13:10:43.534Z,4.43
2022-11-08T13:16:14.803Z,4.60
2022-11-08T13:21:39.122Z,5.50
2022-11-08T13:26:43.425Z,5.13
2022-11-08T13:32:02.840Z,3.77
2022-11-08T13:37:27.773Z,3.93
2022-11-08T13:42:39.954Z,2.70
2022-11-08T13:47:43.058Z,2.03
2022-11-08T13:53:01.875Z,3.53
2022-11-08T13:58:24.956Z,2.30
2022-11-08T14:03:34.170Z,3.17
2022-11-08T14:08:56.017Z,3.30
2022-11-08T14:14:17.161Z,3.50
2022-11-08T14:19:22.588Z,2.77
2022-11-08T14:24:36.778Z,2.30
2022-11-08T14:29:40.316Z,3.83
2022-11-08T14:34:43.821Z,3.10
2022-11-08T14:39:47.500Z,3.10
2022-11-08T14:44:53.833Z,3.83
2022-11-08T14:50:00.792Z,6.73
2022-11-08T14:55:08.724Z,3.87
2022-11-08T15:00:22.551Z,3.07
2022-11-08T15:05:47.444Z,3.67
2022-11-08T15:11:28.645Z,4.10
2022-11-08T15:16:46.201Z,4.07
2022-11-08T15:21:50.040Z,3.47
2022-11-08T15:27:12.636Z,5.03
2022-11-08T15:32:18.060Z,4.00
2022-11-08T15:37:30.664Z,3.80
2022-11-08T15:42:35.105Z,8.27
2022-11-08T15:47:49.549Z,6.53
2022-11-08T15:52:55.280Z,8.93
2022-11-08T15:57:59.791Z,8.20
2022-11-08T16:03:04.201Z,8.10
2022-11-08T16:08:07.732Z,51.07
2022-11-08T16:13:22.036Z,21.83
2022-11-08T16:18:25.697Z,23.00
2022-11-08T16:23:29.255Z,29.97
2022-11-08T16:28:34.725Z,28.20
2022-11-08T16:33:38.521Z,23.23
2022-11-08T16:38:42.271Z,20.83
2022-11-08T16:43:45.762Z,13.20
2022-11-08T16:48:55.937Z,10.50
2022-11-08T16:53:59.290Z,10.77
2022-11-08T16:59:02.533Z,9.40
2022-11-08T17:04:05.863Z,12.73
2022-11-08T17:09:09.185Z,11.87
2022-11-08T17:14:13.363Z,13.47
2022-11-08T17:19:16.664Z,18.73
2022-11-08T17:24:22.016Z,17.43
2022-11-08T17:29:25.571Z,20.20
2022-11-08T17:34:29.812Z,16.70
2022-11-08T17:39:33.294Z,20.53
2022-11-08T17:44:36.902Z,24.03
2022-11-08T17:49:44.012Z,28.27
2022-11-08T17:54:52.817Z,27.17
2022-11-08T17:59:58.484Z,32.63
2022-11-08T18:05:01.741Z,28.30
2022-11-08T18:10:07.130Z,31.00
2022-11-08T18:15:10.975Z,38.30
2022-11-08T18:20:14.166Z,32.10
2022-11-08T18:25:17.365Z,33.60
2022-11-08T18:30:20.587Z,33.77
2022-11-08T18:35:23.909Z,35.77
2022-11-08T18:40:27.003Z,31.47
2022-11-08T18:45:30.443Z,32.23
2022-11-08T18:50:33.719Z,29.33
2022-11-08T18:55:36.940Z,28.13
2022-11-08T19:00:40.135Z,26.37
2022-11-08T19:05:47.415Z,28.20
2022-11-08T19:10:55.433Z,28.30
2022-11-08T19:16:20.817Z,27.90
2022-11-08T19:21:26.494Z,32.53
2022-11-08T19:26:30.090Z,28.80
2022-11-08T19:31:35.353Z,28.53
2022-11-08T19:36:43.490Z,30.93
2022-11-08T19:41:47.349Z,26.93
2022-11-08T19:46:50.638Z,31.50
2022-11-08T19:51:56.080Z,28.73
2022-11-08T19:57:04.556Z,28.50
2022-11-08T20:02:10.399Z,31.20
2022-11-08T20:07:14.960Z,30.87
2022-11-08T20:12:18.269Z,29.53
2022-11-08T20:17:23.940Z,31.43
2022-11-08T20:22:27.189Z,26.20
2022-11-08T20:27:30.580Z,30.83
2022-11-08T20:32:33.962Z,28.27
2022-11-08T20:37:37.136Z,29.67
2022-11-08T20:42:43.444Z,28.07
2022-11-08T20:47:49.467Z,28.97
2022-11-08T20:52:52.779Z,30.70
2022-11-08T20:57:56.128Z,29.43
2022-11-08T21:02:59.349Z,28.63
2022-11-08T21:08:56.106Z,33.27
2022-11-08T21:13:28.386Z,33.13
2022-11-08T21:18:35.480Z,29.47
2022-11-08T21:23:40.829Z,31.93
2022-11-08T21:28:44.248Z,32.07
2022-11-08T21:33:47.704Z,31.20
2022-11-08T21:38:55.040Z,28.90
2022-11-08T21:43:59.862Z,32.57
2022-11-08T21:49:05.348Z,29.67
2022-11-08T21:54:08.604Z,31.77
2022-11-08T21:59:12.209Z,27.87
2022-11-08T22:04:15.427Z,32.53
2022-11-08T22:09:18.719Z,31.13
2022-11-08T22:14:22.143Z,29.73
2022-11-08T22:19:25.496Z,31.37
2022-11-08T22:24:28.648Z,28.67
2022-11-08T22:29:31.982Z,31.37
2022-11-08T22:34:35.350Z,30.43
2022-11-08T22:39:38.576Z,30.00
2022-11-08T22:44:41.956Z,31.43
2022-11-08T22:49:45.339Z,34.10
2022-11-08T22:54:48.627Z,29.43
2022-11-08T22:59:51.776Z,33.50
2022-11-08T23:04:55.102Z,31.60
2022-11-08T23:09:58.359Z,29.83
2022-11-08T23:15:20.191Z,33.40
2022-11-08T23:20:41.737Z,30.60
2022-11-08T23:25:44.942Z,32.43
2022-11-08T23:31:06.599Z,29.67
2022-11-08T23:36:14.439Z,33.47
2022-11-08T23:41:36.017Z,37.53
2022-11-08T23:46:39.713Z,34.13
2022-11-08T23:51:42.955Z,37.80
2022-11-08T23:56:46.850Z,38.50
